Kieffer E Bailey — WDH4584 — position and weather

sailwx.info

Track history (hours):
 
Tides and Currents Weather Stations Pressure Air Temp Water Temp Dewpoint Dewpoint Depression Visibility Wind Speed Wind Dir Waves Ship Positions

Kieffer E Bailey

Owner: Marquette Transportation Company Gulf-Inland, LLC, Jefferson, LA. More information available from US FCC via Universal Licensing System and Coast Guard Vessel Documentation Center.

Last reported at 2017-Nov-09 00:06 UTC. Time now 2017-Nov-20 15:29 UTC.
Position N 32°45' W 091°09'.
Warning: this ship's position is 11 days out of date.

Length 25 m; draft 2.9 m.

Type: Tow > 200 m length. MMSI: 367619240.

Date/timePositionNaut miles runAvg speedWind from/ knotsBaromVisibWave heightAir tempDewpointWater temp
2017-Nov-09 00:06N 32°45' W 091°09'0 3.6
2017-Nov-08 23:59N 32°45' W 091°09'5 1.3
2017-Nov-08 20:12N 32°40' W 091°07'1 3.3
2017-Nov-08 20:00N 32°40' W 091°08'2 3.1
2017-Nov-08 19:15N 32°38' W 091°09'1 3.2
2017-Nov-08 19:00N 32°37' W 091°09'2 3.4
2017-Nov-08 18:30N 32°36' W 091°08'2 3.3
2017-Nov-08 18:00N 32°34' W 091°07'2 3.1
2017-Nov-08 17:30N 32°33' W 091°06'1 2.9
2017-Nov-08 17:00N 32°32' W 091°06'2 3.7
2017-Nov-08 16:30N 32°30' W 091°07'2 3.8
2017-Nov-08 16:00N 32°28' W 091°06'2 3.4
2017-Nov-08 15:30N 32°27' W 091°05'2 3.4
2017-Nov-08 15:00N 32°26' W 091°03'2 3.3
2017-Nov-08 14:30N 32°26' W 091°01'2 3.3
2017-Nov-08 14:01N 32°25' W 090°60'1 2.8
2017-Nov-08 13:31N 32°23' W 090°60'2 3.4
2017-Nov-08 13:00N 32°22' W 091°00'2 3.6
2017-Nov-08 12:30N 32°21' W 090°58'2 3.8
2017-Nov-08 12:00N 32°21' W 090°56'2 3.6
2017-Nov-08 11:30N 32°20' W 090°54'2 3.3
2017-Nov-08 11:01N 32°18' W 090°55'2 4.0
2017-Nov-08 10:30N 32°17' W 090°57'2 3.4
2017-Nov-08 10:00N 32°16' W 090°58'1 2.8
2017-Nov-08 09:31N 32°15' W 090°59'2 3.3
2017-Nov-08 09:00N 32°13' W 090°59'2 3.4
2017-Nov-08 08:30N 32°11' W 090°60'2 3.5
2017-Nov-08 08:00N 32°10' W 091°00'1 3.0
2017-Nov-08 07:31N 32°08' W 091°01'2 3.4
2017-Nov-08 07:00N 32°07' W 091°02'2 3.3
2017-Nov-08 06:19N 32°08' W 091°05'1 3.7
2017-Nov-08 05:59N 32°08' W 091°06'1 3.1
2017-Nov-08 05:31N 32°06' W 091°06'2 1.9
2017-Nov-08 04:27N 32°05' W 091°04'0 1.0
2017-Nov-08 03:58N 32°05' W 091°04'1 3.0
2017-Nov-08 03:28N 32°03' W 091°03'2 3.6
2017-Nov-08 03:00N 32°02' W 091°04'7 3.1
2017-Nov-08 00:50N 31°58' W 091°11'  
2017-Nov-01 18:43N 31°60' W 091°05'2 7.4
2017-Nov-01 18:26N 32°02' W 091°04'23 1.4
2017-Nov-01 02:00N 32°24' W 090°59'2 4.3
2017-Nov-01 01:30N 32°22' W 091°00'2 4.4
2017-Nov-01 01:01N 32°21' W 090°58'0 0.6
2017-Nov-01 00:30N 32°21' W 090°58'0 0.0
2017-Nov-01 00:01N 32°21' W 090°58'2 4.6
2017-Oct-31 23:30N 32°21' W 090°55'2 3.3
2017-Oct-31 23:01N 32°19' W 090°54'1 1.4
2017-Oct-31 22:30N 32°19' W 090°55'2 4.0
2017-Oct-31 22:01N 32°17' W 090°56'2 4.8
2017-Oct-31 21:31N 32°16' W 090°58'2 4.6
2017-Oct-31 21:01N 32°13' W 090°59'3 5.3
2017-Oct-31 20:31N 32°11' W 091°00'2 3.3
2017-Oct-31 20:01N 32°09' W 091°00'0 0.0
2017-Oct-31 19:30N 32°09' W 091°00'0 0.0
2017-Oct-31 19:00N 32°09' W 091°00'0 0.0
2017-Oct-31 18:30N 32°09' W 091°00'1 2.0
2017-Oct-31 18:00N 32°08' W 091°01'2 4.2
2017-Oct-31 17:30N 32°07' W 091°03'3 5.0
2017-Oct-31 16:55N 32°08' W 091°06'5 4.5
2017-Oct-31 15:46N 32°03' W 091°03'1 4.7
2017-Oct-31 15:31N 32°02' W 091°04'  
Track history (hours):
 
Tides and Currents Weather Stations Pressure Air Temp Water Temp Dewpoint Dewpoint Depression Visibility Wind Speed Wind Dir Waves Ship Positions

Kieffer E Bailey

Owner: Marquette Transportation Company Gulf-Inland, LLC, Jefferson, LA. More information available from US FCC via Universal Licensing System and Coast Guard Vessel Documentation Center.

Last reported at 2017-Nov-09 00:06 UTC. Time now 2017-Nov-20 15:29 UTC.
Position N 32°45' W 091°09'.
Warning: this ship's position is 11 days out of date.

Length 25 m; draft 2.9 m.

Type: Tow > 200 m length. MMSI: 367619240.

Date/timePositionNaut miles runAvg speedWind from/ knotsBaromVisibWave heightAir tempDewpointWater temp
2017-Nov-09 00:06N 32°45' W 091°09'0 3.6
2017-Nov-08 23:59N 32°45' W 091°09'5 1.3
2017-Nov-08 20:12N 32°40' W 091°07'1 3.3
2017-Nov-08 20:00N 32°40' W 091°08'2 3.1
2017-Nov-08 19:15N 32°38' W 091°09'1 3.2
2017-Nov-08 19:00N 32°37' W 091°09'2 3.4
2017-Nov-08 18:30N 32°36' W 091°08'2 3.3
2017-Nov-08 18:00N 32°34' W 091°07'2 3.1
2017-Nov-08 17:30N 32°33' W 091°06'1 2.9
2017-Nov-08 17:00N 32°32' W 091°06'2 3.7
2017-Nov-08 16:30N 32°30' W 091°07'2 3.8
2017-Nov-08 16:00N 32°28' W 091°06'2 3.4
2017-Nov-08 15:30N 32°27' W 091°05'2 3.4
2017-Nov-08 15:00N 32°26' W 091°03'2 3.3
2017-Nov-08 14:30N 32°26' W 091°01'2 3.3
2017-Nov-08 14:01N 32°25' W 090°60'1 2.8
2017-Nov-08 13:31N 32°23' W 090°60'2 3.4
2017-Nov-08 13:00N 32°22' W 091°00'2 3.6
2017-Nov-08 12:30N 32°21' W 090°58'2 3.8
2017-Nov-08 12:00N 32°21' W 090°56'2 3.6
2017-Nov-08 11:30N 32°20' W 090°54'2 3.3
2017-Nov-08 11:01N 32°18' W 090°55'2 4.0
2017-Nov-08 10:30N 32°17' W 090°57'2 3.4
2017-Nov-08 10:00N 32°16' W 090°58'1 2.8
2017-Nov-08 09:31N 32°15' W 090°59'2 3.3
2017-Nov-08 09:00N 32°13' W 090°59'2 3.4
2017-Nov-08 08:30N 32°11' W 090°60'2 3.5
2017-Nov-08 08:00N 32°10' W 091°00'1 3.0
2017-Nov-08 07:31N 32°08' W 091°01'2 3.4
2017-Nov-08 07:00N 32°07' W 091°02'2 3.3
2017-Nov-08 06:19N 32°08' W 091°05'1 3.7
2017-Nov-08 05:59N 32°08' W 091°06'1 3.1
2017-Nov-08 05:31N 32°06' W 091°06'2 1.9
2017-Nov-08 04:27N 32°05' W 091°04'0 1.0
2017-Nov-08 03:58N 32°05' W 091°04'1 3.0
2017-Nov-08 03:28N 32°03' W 091°03'2 3.6
2017-Nov-08 03:00N 32°02' W 091°04'7 3.1
2017-Nov-08 00:50N 31°58' W 091°11'  
2017-Nov-01 18:43N 31°60' W 091°05'2 7.4
2017-Nov-01 18:26N 32°02' W 091°04'23 1.4
2017-Nov-01 02:00N 32°24' W 090°59'2 4.3
2017-Nov-01 01:30N 32°22' W 091°00'2 4.4
2017-Nov-01 01:01N 32°21' W 090°58'0 0.6
2017-Nov-01 00:30N 32°21' W 090°58'0 0.0
2017-Nov-01 00:01N 32°21' W 090°58'2 4.6
2017-Oct-31 23:30N 32°21' W 090°55'2 3.3
2017-Oct-31 23:01N 32°19' W 090°54'1 1.4
2017-Oct-31 22:30N 32°19' W 090°55'2 4.0
2017-Oct-31 22:01N 32°17' W 090°56'2 4.8
2017-Oct-31 21:31N 32°16' W 090°58'2 4.6
2017-Oct-31 21:01N 32°13' W 090°59'3 5.3
2017-Oct-31 20:31N 32°11' W 091°00'2 3.3
2017-Oct-31 20:01N 32°09' W 091°00'0 0.0
2017-Oct-31 19:30N 32°09' W 091°00'0 0.0
2017-Oct-31 19:00N 32°09' W 091°00'0 0.0
2017-Oct-31 18:30N 32°09' W 091°00'1 2.0
2017-Oct-31 18:00N 32°08' W 091°01'2 4.2
2017-Oct-31 17:30N 32°07' W 091°03'3 5.0
2017-Oct-31 16:55N 32°08' W 091°06'5 4.5
2017-Oct-31 15:46N 32°03' W 091°03'1 4.7
2017-Oct-31 15:31N 32°02' W 091°04'  

Dump ship's entire track history